Latest Weather Observations for Geraldton Airport

IDW60801

Issued at 2:35 pm WST Saturday 1 November 2014 (issued every 30 minutes, with the page automatically refreshed every 10 minutes)

About weather observations | Map of weather stations | Latest weather observations for WA | Other Formats
Station Details ID: 008315 Name: GERALDTON AIRPORT Lat: -28.80 Lon: 114.70 Height: 29.7 m
Data from the previous 72 hours. | See also: Recent months at Geraldton Airport
Date/Time
WST
Temp
°C
App
Temp
°C
Dew
Point
Rel
Hum
%
Delta-T
°C
Wind Press
QNH
hPa
Press
MSL
hPa
Rain
since 9 am
mm
Dir
 
Spd
km/h
Gust
km/h
Spd
kts
Gust
kts
01/02:30pm 25.8 22.2 12.9 44 7.5 SW 24 32 13 17 1013.3 - 0.0
01/02:00pm 25.4 22.4 13.7 48 6.9 SSW 22 30 12 16 1013.4 - 0.0
01/01:30pm 25.6 22.0 13.1 46 7.3 SW 24 30 13 16 1013.8 - 0.0
01/01:00pm 25.8 21.6 12.5 43 7.7 SW 26 33 14 18 1014.2 - 0.0
01/12:30pm 26.0 22.0 11.7 41 8.2 SW 24 30 13 16 1014.3 - 0.0
01/12:00pm 25.9 22.0 10.8 38 8.5 SW 22 30 12 16 1014.5 1014.4 0.0
01/11:30am 26.0 22.1 10.9 38 8.5 SW 22 30 12 16 1014.7 - 0.0
01/11:00am 25.6 21.7 10.9 39 8.3 SW 22 30 12 16 1015.1 - 0.0
01/10:30am 25.7 21.7 10.6 38 8.5 SW 22 30 12 16 1015.3 - 0.0
01/10:00am 26.2 24.3 6.5 28 10.3 NW 6 11 3 6 1015.7 - 0.0
01/09:30am 24.9 22.6 7.5 33 9.2 SE 9 15 5 8 1015.9 - 0.0
01/09:00am 22.5 20.6 7.6 38 7.8 SSE 7 15 4 8 1016.3 1016.2 0.0
01/08:30am 20.8 17.7 7.2 41 7.0 S 13 20 7 11 1016.5 - 0.0
01/08:00am 19.5 15.8 7.9 47 6.0 SSE 17 20 9 11 1016.6 - 0.0
01/07:30am 17.8 15.0 8.5 54 4.8 SE 13 17 7 9 1016.5 - 0.0
01/07:00am 15.8 13.7 8.1 60 3.9 ESE 9 15 5 8 1016.4 - 0.0
01/06:30am 12.5 11.4 8.5 76 2.0 E 4 7 2 4 1016.4 - 0.0
01/06:00am 10.5 10.1 8.2 86 1.1 CALM 0 0 0 0 1016.3 1016.2 0.0
01/05:30am 9.3 7.6 7.4 88 0.9 SE 6 7 3 4 1016.1 - 0.0
01/05:00am 9.4 8.8 7.3 87 1.0 CALM 0 6 0 3 1016.0 - 0.0
01/04:30am 9.6 7.7 7.5 87 1.0 SE 7 9 4 5 1015.9 - 0.0
01/04:00am 10.3 8.7 8.0 86 1.1 SE 6 7 3 4 1015.9 - 0.0
01/03:30am 10.3 8.1 7.8 84 1.2 SE 9 11 5 6 1015.9 - 0.0
01/03:00am 10.6 8.4 7.9 83 1.3 SE 9 9 5 5 1015.9 1015.8 0.0
01/02:30am 11.9 10.5 8.7 81 1.6 SSE 6 7 3 4 1016.0 - 0.0
01/02:00am 12.2 10.2 8.6 78 1.8 SSE 9 13 5 7 1015.9 - 0.0
01/01:30am 12.4 10.0 8.6 77 1.9 SE 11 13 6 7 1015.9 - 0.0
01/01:00am 13.0 10.3 8.9 76 2.1 SE 13 17 7 9 1016.2 - 0.0
01/12:30am 13.7 11.0 9.1 74 2.3 SE 13 17 7 9 1016.4 - 0.0
01/12:00am 14.2 11.2 9.4 73 2.5 SE 15 19 8 10 1016.6 1016.5 0.0
 
Date/Time
WST
Temp
°C
App
Temp
°C
Dew
Point
Rel
Hum
%
Delta-T
°C
Wind Press
QNH
hPa
Press
MSL
hPa
Rain
since 9 am
mm
Dir
 
Spd
km/h
Gust
km/h
Spd
kts
Gust
kts
31/11:30pm 14.7 11.9 10.1 74 2.4 SE 15 19 8 10 1016.9 - 0.0
31/11:00pm 15.3 12.3 10.8 74 2.4 SE 17 24 9 13 1017.0 - 0.0
31/10:30pm 16.6 14.1 12.4 76 2.3 SE 17 20 9 11 1017.2 - 0.0
31/10:00pm 17.9 14.9 12.5 70 3.0 S 20 28 11 15 1017.1 - 0.0
31/09:30pm 18.1 14.9 13.1 72 2.8 S 22 28 12 15 1017.2 - 0.0
31/09:00pm 18.2 15.5 13.4 73 2.7 S 20 28 11 15 1017.2 1017.1 0.0
31/08:30pm 18.4 15.8 13.3 72 2.9 S 19 28 10 15 1017.0 - 0.0
31/08:00pm 18.6 15.9 13.5 72 2.9 S 20 28 11 15 1016.8 - 0.0
31/07:30pm 18.8 15.8 13.7 72 2.9 S 22 30 12 16 1016.7 - 0.0
31/07:00pm 19.1 15.6 13.5 70 3.2 S 24 35 13 19 1016.4 - 0.0
31/06:30pm 19.7 15.6 13.8 69 3.4 S 28 35 15 19 1016.1 - 0.0
31/06:00pm 20.4 16.7 13.8 66 3.8 S 26 35 14 19 1015.9 1015.8 0.0
31/05:30pm 21.0 16.9 13.7 63 4.2 SSW 28 35 15 19 1015.6 - 0.0
31/05:00pm 21.7 17.9 13.5 59 4.7 S 26 35 14 19 1015.3 - 0.0
31/04:30pm 22.7 18.4 13.2 55 5.5 S 28 37 15 20 1015.2 - 0.0
31/04:00pm 22.6 18.5 13.7 57 5.2 S 28 37 15 20 1015.1 - 0.0
31/03:30pm 22.4 18.2 13.5 57 5.2 S 28 39 15 21 1015.1 - 0.0
31/03:00pm 22.9 18.8 12.8 53 5.8 SSW 26 37 14 20 1015.3 1015.2 0.0
31/02:30pm 23.0 18.6 14.0 57 5.3 SSW 30 41 16 22 1015.3 - 0.0
31/02:00pm 23.0 18.5 12.5 51 6.0 SSW 28 43 15 23 1015.2 - 0.0
31/01:30pm 23.5 18.6 12.7 50 6.2 SSW 30 39 16 21 1015.6 - 0.0
31/01:00pm 24.0 19.5 12.6 49 6.5 SSW 28 41 15 22 1015.9 - 0.0
31/12:30pm 24.2 19.5 11.9 46 7.0 S 28 41 15 22 1016.1 - 0.0
31/12:00pm 23.4 18.8 11.1 46 6.9 SSW 26 35 14 19 1016.2 1016.1 0.0
31/11:30am 23.3 18.5 10.2 43 7.2 S 26 33 14 18 1016.4 - 0.0
31/11:00am 23.1 19.2 9.6 42 7.3 S 20 32 11 17 1016.6 - 0.0
31/10:30am 23.3 18.8 10.2 43 7.2 S 24 32 13 17 1016.7 - 0.0
31/10:00am 22.7 17.9 8.7 40 7.5 S 24 41 13 22 1016.7 - 0.0
31/09:30am 23.2 18.3 8.3 38 7.9 SSE 24 33 13 18 1016.7 - 0.0
31/09:00am 22.8 19.0 9.7 43 7.1 SSE 20 33 11 18 1016.9 1016.8 0.0
31/08:30am 20.4 16.2 11.2 55 5.1 SE 24 26 13 14 1017.0 - 0.0
31/08:00am 20.4 17.2 11.3 56 5.0 SE 19 26 10 14 1016.9 - 0.0
31/07:30am 19.7 15.4 9.3 51 5.5 S 22 30 12 16 1016.7 - 0.0
31/07:00am 19.4 16.5 10.9 58 4.6 S 17 24 9 13 1016.5 - 0.0
31/06:30am 18.1 16.9 12.9 71 2.9 S 11 17 6 9 1016.3 - 0.0
31/06:00am 17.9 15.7 12.1 69 3.2 S 15 20 8 11 1015.9 1015.8 0.0
31/05:30am 18.1 14.6 12.1 68 3.3 S 22 32 12 17 1015.7 - 0.0
31/05:00am 18.3 15.3 12.4 68 3.3 S 20 33 11 18 1015.3 - 0.0
31/04:30am 18.7 14.7 9.0 53 5.1 S 20 28 11 15 1015.0 - 0.0
31/04:00am 18.8 16.0 10.0 56 4.7 S 15 28 8 15 1014.9 - 0.0
31/03:30am 18.6 15.2 9.2 54 4.9 SSW 17 26 9 14 1014.9 - 0.0
31/03:00am 18.6 15.2 9.3 54 4.9 S 17 24 9 13 1014.6 1014.5 0.0
31/02:30am 18.4 14.5 8.7 53 5.0 S 19 26 10 14 1014.6 - 0.0
31/02:00am 18.8 15.6 9.8 56 4.8 S 17 26 9 14 1014.7 - 0.0
31/01:30am 18.4 15.7 9.1 54 4.9 S 13 19 7 10 1014.9 - 0.0
31/01:00am 18.4 14.6 9.2 55 4.8 SSW 19 26 10 14 1015.3 - 0.0
31/12:30am 18.9 15.2 10.1 56 4.7 S 20 30 11 16 1015.5 - 0.0
31/12:00am 18.9 15.1 9.7 55 4.9 S 20 30 11 16 1016.0 1015.9 0.0
 
Date/Time
WST
Temp
°C
App
Temp
°C
Dew
Point
Rel
Hum
%
Delta-T
°C
Wind Press
QNH
hPa
Press
MSL
hPa
Rain
since 9 am
mm
Dir
 
Spd
km/h
Gust
km/h
Spd
kts
Gust
kts
30/11:30pm 18.7 14.8 9.4 54 4.9 S 20 28 11 15 1016.3 - 0.0
30/11:00pm 18.6 14.3 9.5 55 4.8 SSW 22 30 12 16 1016.6 - 0.0
30/10:30pm 18.6 14.4 9.8 56 4.7 SSW 22 33 12 18 1016.8 - 0.0
30/10:00pm 18.5 13.9 9.6 56 4.7 SSW 24 37 13 20 1016.8 - 0.0
30/09:30pm 18.5 14.7 9.9 57 4.6 S 20 28 11 15 1016.8 - 0.0
30/09:00pm 18.4 14.1 9.5 56 4.7 S 22 39 12 21 1016.7 1016.6 0.0
30/08:30pm 18.5 14.2 9.4 55 4.8 SSW 22 30 12 16 1016.8 - 0.0
30/08:00pm 18.5 14.7 9.9 57 4.6 SSW 20 32 11 17 1016.5 - 0.0
30/07:30pm 18.5 14.3 9.6 56 4.7 SSW 22 32 12 17 1016.4 - 0.0
30/07:00pm 18.8 14.0 10.3 57 4.6 SSW 26 37 14 20 1016.2 - 0.0
30/06:30pm 18.8 14.2 9.8 56 4.8 S 24 32 13 17 1015.6 - 0.0
30/06:00pm 19.1 14.2 9.9 55 4.9 SSW 26 35 14 19 1015.4 1015.3 0.0
30/05:30pm 19.4 14.5 10.1 55 5.0 SSW 26 35 14 19 1015.1 - 0.0
30/05:00pm 19.6 15.0 10.9 57 4.7 SSW 26 35 14 19 1014.8 - 0.0
30/04:30pm 20.0 15.8 11.1 56 4.9 SSW 24 33 13 18 1014.6 - 0.0
30/04:00pm 21.1 16.6 11.4 54 5.4 SSW 26 35 14 19 1014.3 - 0.0
30/03:30pm 20.9 16.2 12.0 56 5.0 SSW 28 35 15 19 1014.4 - 0.0
30/03:00pm 20.8 16.1 12.0 57 4.9 SSW 28 39 15 21 1014.4 1014.3 0.0
30/02:30pm 21.2 16.2 12.1 56 5.1 SW 30 41 16 22 1014.7 - 0.0
30/02:00pm 21.4 16.2 11.7 54 5.4 SW 30 37 16 20 1014.7 - 0.0
30/01:30pm 22.1 17.6 12.6 55 5.4 SSW 28 37 15 20 1014.6 - 0.0
30/01:00pm 22.8 19.2 12.0 50 6.1 SW 22 37 12 20 1014.6 - 0.0
30/12:30pm 22.3 18.6 11.6 50 6.0 SSW 22 32 12 17 1014.5 - 0.0
30/12:00pm 22.4 18.7 11.5 50 6.1 SW 22 32 12 17 1014.5 1014.4 0.0
30/11:30am 22.2 18.9 11.7 51 5.9 SW 20 33 11 18 1014.6 - 0.0
30/11:00am 22.1 18.5 12.0 52 5.7 SSW 22 35 12 19 1014.8 - 0.0
30/10:30am 22.5 19.4 12.1 51 5.9 SSW 20 33 11 18 1015.1 - 0.0
30/10:00am 23.0 19.9 12.1 50 6.2 SSW 20 30 11 16 1015.3 - 0.0
30/09:30am 20.8 17.2 12.0 57 4.9 SSW 22 32 12 17 1015.4 - 0.0
30/09:00am 22.5 19.3 11.8 50 6.0 S 20 30 11 16 1015.4 1015.3 0.0
30/08:30am 20.5 16.8 11.5 56 5.0 SSW 22 30 12 16 1015.6 - 0.0
30/08:00am 20.2 16.9 11.7 58 4.7 S 20 28 11 15 1015.5 - 0.0
30/07:30am 19.7 16.7 12.6 63 4.0 S 20 28 11 15 1015.4 - 0.0
30/07:00am 19.4 16.8 13.1 67 3.6 S 19 28 10 15 1015.4 - 0.0
30/06:30am 18.8 17.3 13.0 69 3.3 S 13 17 7 9 1015.3 - 0.0
30/06:00am 18.2 16.7 13.2 72 2.8 S 13 17 7 9 1015.1 1015.0 0.0
30/05:30am 18.5 16.7 13.4 72 2.9 S 15 20 8 11 1015.0 - 0.0
30/05:00am 18.6 16.7 12.9 69 3.2 S 15 20 8 11 1014.9 - 0.0
30/04:30am 18.6 16.4 13.3 71 3.0 S 17 22 9 12 1014.6 - 0.0
30/04:00am 18.4 16.3 13.7 74 2.7 SSW 17 24 9 13 1014.7 - 0.0
30/03:30am 18.8 16.3 13.6 72 3.0 SSW 19 24 10 13 1014.7 - 0.0
30/03:00am 18.9 16.2 13.5 71 3.1 SSW 20 26 11 14 1014.6 1014.5 0.0
30/02:30am 18.7 16.2 14.1 74 2.6 SSW 20 26 11 14 1014.5 - 0.0
30/02:00am 18.9 16.4 14.1 73 2.8 SSW 20 28 11 15 1014.6 - 0.0
30/01:30am 18.9 16.1 14.3 74 2.7 SSW 22 30 12 16 1014.7 - 0.0
30/01:00am 19.1 16.3 14.2 73 2.8 SSW 22 30 12 16 1014.9 - 0.0
30/12:30am 19.2 17.0 14.4 74 2.8 SSW 19 28 10 15 1015.0 - 0.0
30/12:00am 19.3 16.8 14.1 72 3.0 SSW 20 28 11 15 1015.1 1015.0 0.0
 
Date/Time
WST
Temp
°C
App
Temp
°C
Dew
Point
Rel
Hum
%
Delta-T
°C
Wind Press
QNH
hPa
Press
MSL
hPa
Rain
since 9 am
mm
Dir
 
Spd
km/h
Gust
km/h
Spd
kts
Gust
kts
29/11:30pm 19.2 16.9 14.7 75 2.6 SSW 20 28 11 15 1015.2 - 0.0
29/11:00pm 19.3 16.6 14.7 74 2.7 SSW 22 28 12 15 1015.3 - 0.0
29/10:30pm 19.4 17.2 15.0 75 2.6 SSW 20 26 11 14 1015.5 - 0.0
29/10:00pm 19.7 17.3 15.3 76 2.6 SSW 22 30 12 16 1015.6 - 0.0
29/09:30pm 19.8 18.0 15.6 77 2.5 SSW 19 26 10 14 1015.6 - 0.0
29/09:00pm 19.8 18.1 15.8 78 2.4 SSW 19 28 10 15 1015.5 1015.4 0.0
29/08:30pm 20.0 18.0 15.4 75 2.7 SW 20 26 11 14 1015.4 - 0.0
29/08:00pm 20.0 18.4 15.9 77 2.4 SSW 19 24 10 13 1015.1 - 0.0
29/07:30pm 20.2 18.4 15.5 74 2.8 SSW 19 24 10 13 1014.8 - 0.0
29/07:27pm 20.2 18.1 15.3 73 2.9 SSW 20 24 11 13 1014.7 - 0.0
29/07:00pm 20.1 18.2 15.7 76 2.6 SSW 20 24 11 13 1014.5 - 0.0
29/06:30pm 20.1 18.2 15.7 76 2.6 SSW 20 28 11 15 1014.1 - 0.0
29/06:19pm 20.2 18.6 15.9 76 2.6 SW 19 28 10 15 1014.1 - 0.0
29/06:00pm 20.6 18.8 15.9 74 2.8 SSW 20 26 11 14 1013.8 1013.7 0.0
29/05:30pm 20.9 19.1 16.0 73 2.9 SSW 20 24 11 13 1013.7 - 0.0
29/05:00pm 20.9 18.7 15.9 73 3.0 SSW 22 30 12 16 1013.6 - 0.0
29/04:30pm 21.4 18.7 15.7 70 3.4 S 24 32 13 17 1013.6 - 0.0
29/04:00pm 21.9 19.1 15.4 66 3.9 S 24 33 13 18 1013.5 - 0.0
29/03:30pm 21.9 18.8 15.7 68 3.7 S 26 35 14 19 1013.6 - 0.0
29/03:00pm 22.2 18.7 15.6 66 4.0 SSW 28 37 15 20 1013.6 1013.5 0.0

Other Formats:

Comma delimited format used in spreadsheet applications
http://www.bom.gov.au/fwo/IDW60801/IDW60801.94403.axf

JavaScript Object Notation format (JSON) in row-major order
http://www.bom.gov.au/fwo/IDW60801/IDW60801.94403.json